sensor_id;sensor_type;location;lat;lon;timestamp;pressure;altitude;pressure_sealevel;temperature;humidity
43071;BME280;36278;47.952;21.714;2023-07-31T00:01:47;99903.66;;;18.75;100.00
43071;BME280;36278;47.952;21.714;2023-07-31T00:04:12;99901.19;;;18.73;100.00
43071;BME280;36278;47.952;21.714;2023-07-31T00:06:38;99896.31;;;18.69;100.00
43071;BME280;36278;47.952;21.714;2023-07-31T00:09:03;99901.03;;;18.67;100.00
43071;BME280;36278;47.952;21.714;2023-07-31T00:11:28;99896.16;;;18.62;100.00
43071;BME280;36278;47.952;21.714;2023-07-31T00:13:54;99885.25;;;18.64;100.00
43071;BME280;36278;47.952;21.714;2023-07-31T00:16:19;99888.81;;;18.56;100.00
43071;BME280;36278;47.952;21.714;2023-07-31T00:18:44;99888.19;;;18.54;100.00
43071;BME280;36278;47.952;21.714;2023-07-31T00:21:09;99890.84;;;18.54;100.00
43071;BME280;36278;47.952;21.714;2023-07-31T00:23:35;99892.72;;;18.54;100.00
43071;BME280;36278;47.952;21.714;2023-07-31T00:26:00;99899.94;;;18.53;100.00
43071;BME280;36278;47.952;21.714;2023-07-31T00:28:25;99900.09;;;18.52;100.00
43071;BME280;36278;47.952;21.714;2023-07-31T00:30:52;99907.97;;;18.53;100.00
43071;BME280;36278;47.952;21.714;2023-07-31T00:33:17;99908.16;;;18.52;100.00
43071;BME280;36278;47.952;21.714;2023-07-31T00:35:42;99909.81;;;18.53;100.00
43071;BME280;36278;47.952;21.714;2023-07-31T00:38:08;99913.69;;;18.50;100.00
43071;BME280;36278;47.952;21.714;2023-07-31T00:40:36;99914.88;;;18.47;100.00
43071;BME280;36278;47.952;21.714;2023-07-31T00:43:02;99917.91;;;18.44;100.00
43071;BME280;36278;47.952;21.714;2023-07-31T00:45:28;99916.25;;;18.43;100.00
43071;BME280;36278;47.952;21.714;2023-07-31T00:47:54;99911.41;;;18.39;100.00
43071;BME280;36278;47.952;21.714;2023-07-31T00:50:19;99909.91;;;18.36;100.00
43071;BME280;36278;47.952;21.714;2023-07-31T00:52:44;99907.22;;;18.36;100.00
43071;BME280;36278;47.952;21.714;2023-07-31T00:55:10;99905.91;;;18.32;100.00
43071;BME280;36278;47.952;21.714;2023-07-31T00:57:35;99895.34;;;18.31;100.00
43071;BME280;36278;47.952;21.714;2023-07-31T01:00:02;99906.91;;;18.31;100.00
43071;BME280;36278;47.952;21.714;2023-07-31T01:02:28;99905.25;;;18.30;100.00
43071;BME280;36278;47.952;21.714;2023-07-31T01:04:53;99899.69;;;18.32;100.00
43071;BME280;36278;47.952;21.714;2023-07-31T01:09:45;99894.38;;;18.24;100.00
43071;BME280;36278;47.952;21.714;2023-07-31T01:12:13;99892.91;;;18.21;100.00
43071;BME280;36278;47.952;21.714;2023-07-31T01:14:39;99898.63;;;18.18;100.00
43071;BME280;36278;47.952;21.714;2023-07-31T01:17:04;99897.59;;;18.19;100.00
43071;BME280;36278;47.952;21.714;2023-07-31T01:19:30;99893.59;;;18.15;100.00
43071;BME280;36278;47.952;21.714;2023-07-31T01:24:54;99879.13;;;18.24;100.00
43071;BME280;36278;47.952;21.714;2023-07-31T01:27:21;99879.03;;;18.17;100.00
43071;BME280;36278;47.952;21.714;2023-07-31T01:32:17;99877.69;;;18.13;100.00
43071;BME280;36278;47.952;21.714;2023-07-31T01:34:43;99882.88;;;18.15;100.00
43071;BME280;36278;47.952;21.714;2023-07-31T01:37:08;99878.53;;;18.14;100.00
43071;BME280;36278;47.952;21.714;2023-07-31T01:39:34;99877.34;;;18.16;100.00
43071;BME280;36278;47.952;21.714;2023-07-31T01:41:59;99867.47;;;18.17;100.00
43071;BME280;36278;47.952;21.714;2023-07-31T01:44:24;99859.53;;;18.24;100.00
43071;BME280;36278;47.952;21.714;2023-07-31T01:46:50;99851.97;;;18.27;100.00
43071;BME280;36278;47.952;21.714;2023-07-31T01:49:15;99854.31;;;18.30;100.00
43071;BME280;36278;47.952;21.714;2023-07-31T01:51:40;99863.50;;;18.36;100.00
43071;BME280;36278;47.952;21.714;2023-07-31T01:54:06;99858.78;;;18.38;100.00
43071;BME280;36278;47.952;21.714;2023-07-31T01:56:31;99858.06;;;18.44;100.00
43071;BME280;36278;47.952;21.714;2023-07-31T01:58:56;99864.59;;;18.49;100.00
43071;BME280;36278;47.952;21.714;2023-07-31T02:01:22;99859.38;;;18.48;100.00
43071;BME280;36278;47.952;21.714;2023-07-31T02:03:49;99860.22;;;18.48;100.00
43071;BME280;36278;47.952;21.714;2023-07-31T02:06:14;99864.09;;;18.46;100.00
43071;BME280;36278;47.952;21.714;2023-07-31T02:08:40;99868.81;;;18.44;100.00
43071;BME280;36278;47.952;21.714;2023-07-31T02:11:05;99871.50;;;18.44;100.00
43071;BME280;36278;47.952;21.714;2023-07-31T02:13:31;99882.03;;;18.45;100.00
43071;BME280;36278;47.952;21.714;2023-07-31T02:15:56;99885.03;;;18.51;100.00
43071;BME280;36278;47.952;21.714;2023-07-31T02:18:22;99885.72;;;18.44;100.00
43071;BME280;36278;47.952;21.714;2023-07-31T02:20:51;99898.91;;;18.23;100.00
43071;BME280;36278;47.952;21.714;2023-07-31T02:23:19;99902.78;;;18.20;100.00
43071;BME280;36278;47.952;21.714;2023-07-31T02:25:45;99908.16;;;18.20;100.00
43071;BME280;36278;47.952;21.714;2023-07-31T02:28:10;99906.56;;;18.03;100.00
43071;BME280;36278;47.952;21.714;2023-07-31T02:30:35;99901.72;;;17.99;100.00
43071;BME280;36278;47.952;21.714;2023-07-31T02:33:00;99898.75;;;17.85;100.00
43071;BME280;36278;47.952;21.714;2023-07-31T02:35:26;99894.38;;;17.92;100.00
43071;BME280;36278;47.952;21.714;2023-07-31T02:37:51;99892.19;;;17.96;100.00
43071;BME280;36278;47.952;21.714;2023-07-31T02:40:16;99896.03;;;18.02;100.00
43071;BME280;36278;47.952;21.714;2023-07-31T02:42:42;99894.34;;;18.01;100.00
43071;BME280;36278;47.952;21.714;2023-07-31T02:45:07;99894.34;;;18.01;100.00
43071;BME280;36278;47.952;21.714;2023-07-31T02:47:33;99903.75;;;17.97;100.00
43071;BME280;36278;47.952;21.714;2023-07-31T02:49:58;99899.75;;;17.92;100.00
43071;BME280;36278;47.952;21.714;2023-07-31T02:52:24;99893.06;;;17.88;100.00
43071;BME280;36278;47.952;21.714;2023-07-31T02:54:50;99891.84;;;17.91;100.00
43071;BME280;36278;47.952;21.714;2023-07-31T02:57:15;99897.75;;;17.86;100.00
43071;BME280;36278;47.952;21.714;2023-07-31T02:59:41;99900.25;;;17.88;100.00
43071;BME280;36278;47.952;21.714;2023-07-31T03:02:06;99889.06;;;17.84;100.00
43071;BME280;36278;47.952;21.714;2023-07-31T03:04:32;99888.22;;;17.84;100.00
43071;BME280;36278;47.952;21.714;2023-07-31T03:06:57;99899.78;;;17.84;100.00
43071;BME280;36278;47.952;21.714;2023-07-31T03:09:22;99899.28;;;17.81;100.00
43071;BME280;36278;47.952;21.714;2023-07-31T03:11:47;99910.34;;;17.78;100.00
43071;BME280;36278;47.952;21.714;2023-07-31T03:14:13;99915.56;;;17.71;100.00
43071;BME280;36278;47.952;21.714;2023-07-31T03:16:38;99910.66;;;17.66;100.00
43071;BME280;36278;47.952;21.714;2023-07-31T03:19:03;99909.34;;;17.71;100.00
43071;BME280;36278;47.952;21.714;2023-07-31T03:21:29;99906.16;;;17.75;100.00
43071;BME280;36278;47.952;21.714;2023-07-31T03:23:54;99915.19;;;17.74;100.00
43071;BME280;36278;47.952;21.714;2023-07-31T03:26:19;99909.69;;;17.76;100.00
43071;BME280;36278;47.952;21.714;2023-07-31T03:28:45;99920.88;;;17.79;100.00
43071;BME280;36278;47.952;21.714;2023-07-31T03:31:10;99920.06;;;17.79;100.00
43071;BME280;36278;47.952;21.714;2023-07-31T03:33:36;99914.03;;;17.77;100.00
43071;BME280;36278;47.952;21.714;2023-07-31T03:36:01;99917.03;;;17.74;100.00
43071;BME280;36278;47.952;21.714;2023-07-31T03:38:27;99926.25;;;17.71;100.00
43071;BME280;36278;47.952;21.714;2023-07-31T03:40:52;99924.25;;;17.73;100.00
43071;BME280;36278;47.952;21.714;2023-07-31T03:43:17;99932.47;;;17.72;100.00
43071;BME280;36278;47.952;21.714;2023-07-31T03:45:43;99923.59;;;17.71;100.00
43071;BME280;36278;47.952;21.714;2023-07-31T03:48:08;99923.91;;;17.76;100.00
43071;BME280;36278;47.952;21.714;2023-07-31T03:50:33;99923.09;;;17.76;100.00
43071;BME280;36278;47.952;21.714;2023-07-31T03:52:59;99930.59;;;17.80;100.00
43071;BME280;36278;47.952;21.714;2023-07-31T03:55:24;99931.44;;;17.81;100.00
43071;BME280;36278;47.952;21.714;2023-07-31T03:57:49;99930.59;;;17.80;100.00
43071;BME280;36278;47.952;21.714;2023-07-31T04:00:15;99932.25;;;17.81;100.00
43071;BME280;36278;47.952;21.714;2023-07-31T04:02:40;99927.22;;;17.86;100.00
43071;BME280;36278;47.952;21.714;2023-07-31T04:05:06;99932.22;;;17.89;100.00
43071;BME280;36278;47.952;21.714;2023-07-31T04:07:31;99931.06;;;17.92;100.00
43071;BME280;36278;47.952;21.714;2023-07-31T04:09:57;99921.84;;;17.95;100.00
43071;BME280;36278;47.952;21.714;2023-07-31T04:12:22;99937.25;;;18.01;100.00
43071;BME280;36278;47.952;21.714;2023-07-31T04:14:47;99932.16;;;18.06;100.00
43071;BME280;36278;47.952;21.714;2023-07-31T04:17:12;99938.03;;;18.09;100.00
43071;BME280;36278;47.952;21.714;2023-07-31T04:19:38;99932.47;;;18.19;100.00
43071;BME280;36278;47.952;21.714;2023-07-31T04:22:03;99944.81;;;18.28;100.00
43071;BME280;36278;47.952;21.714;2023-07-31T04:24:28;99942.78;;;18.30;100.00
43071;BME280;36278;47.952;21.714;2023-07-31T04:26:54;99948.47;;;18.35;100.00
43071;BME280;36278;47.952;21.714;2023-07-31T04:29:19;99949.25;;;18.44;100.00
43071;BME280;36278;47.952;21.714;2023-07-31T04:31:45;99946.34;;;18.54;100.00
43071;BME280;36278;47.952;21.714;2023-07-31T04:34:10;99945.16;;;18.56;100.00
43071;BME280;36278;47.952;21.714;2023-07-31T04:36:36;99939.09;;;18.62;100.00
43071;BME280;36278;47.952;21.714;2023-07-31T04:39:01;99937.88;;;18.73;100.00
43071;BME280;36278;47.952;21.714;2023-07-31T04:41:27;99932.63;;;18.80;100.00
43071;BME280;36278;47.952;21.714;2023-07-31T04:43:53;99941.00;;;18.85;100.00
43071;BME280;36278;47.952;21.714;2023-07-31T04:46:18;99945.47;;;18.92;100.00
43071;BME280;36278;47.952;21.714;2023-07-31T04:48:43;99943.38;;;19.02;100.00
43071;BME280;36278;47.952;21.714;2023-07-31T04:51:09;99943.97;;;19.13;100.00
43071;BME280;36278;47.952;21.714;2023-07-31T04:53:34;99938.19;;;19.24;100.00
43071;BME280;36278;47.952;21.714;2023-07-31T04:56:00;99938.75;;;19.34;100.00
43071;BME280;36278;47.952;21.714;2023-07-31T04:58:25;99943.03;;;19.43;100.00
43071;BME280;36278;47.952;21.714;2023-07-31T05:00:50;99951.91;;;19.44;100.00
43071;BME280;36278;47.952;21.714;2023-07-31T05:03:15;99958.22;;;19.51;100.00
43071;BME280;36278;47.952;21.714;2023-07-31T05:05:41;99966.47;;;19.49;100.00
43071;BME280;36278;47.952;21.714;2023-07-31T05:08:06;99960.53;;;19.54;100.00
43071;BME280;36278;47.952;21.714;2023-07-31T05:10:31;99959.03;;;19.59;100.00
43071;BME280;36278;47.952;21.714;2023-07-31T05:12:57;99966.34;;;19.66;100.00
43071;BME280;36278;47.952;21.714;2023-07-31T05:15:22;99960.91;;;19.74;100.00
43071;BME280;36278;47.952;21.714;2023-07-31T05:17:47;99964.72;;;19.79;100.00
43071;BME280;36278;47.952;21.714;2023-07-31T05:20:13;99972.84;;;19.86;100.00
43071;BME280;36278;47.952;21.714;2023-07-31T05:22:40;99973.13;;;19.91;100.00
43071;BME280;36278;47.952;21.714;2023-07-31T05:25:05;99965.91;;;19.92;100.00
43071;BME280;36278;47.952;21.714;2023-07-31T05:27:30;99968.88;;;19.97;100.00
43071;BME280;36278;47.952;21.714;2023-07-31T05:29:56;99969.63;;;20.05;100.00
43071;BME280;36278;47.952;21.714;2023-07-31T05:32:21;99976.84;;;20.20;100.00
43071;BME280;36278;47.952;21.714;2023-07-31T05:34:47;99976.00;;;20.19;100.00
43071;BME280;36278;47.952;21.714;2023-07-31T05:37:13;99970.47;;;20.21;100.00
43071;BME280;36278;47.952;21.714;2023-07-31T05:39:38;99964.31;;;20.27;100.00
43071;BME280;36278;47.952;21.714;2023-07-31T05:42:04;99973.94;;;20.36;100.00
43071;BME280;36278;47.952;21.714;2023-07-31T05:44:29;99976.38;;;20.46;100.00
43071;BME280;36278;47.952;21.714;2023-07-31T05:46:55;99973.41;;;20.55;100.00
43071;BME280;36278;47.952;21.714;2023-07-31T05:49:20;99977.56;;;20.58;100.00
43071;BME280;36278;47.952;21.714;2023-07-31T05:51:45;99982.19;;;20.64;99.43
43071;BME280;36278;47.952;21.714;2023-07-31T05:54:11;99976.72;;;20.57;99.37
43071;BME280;36278;47.952;21.714;2023-07-31T05:56:36;99982.63;;;20.67;98.84
43071;BME280;36278;47.952;21.714;2023-07-31T05:59:01;99982.91;;;20.73;100.00
43071;BME280;36278;47.952;21.714;2023-07-31T06:01:28;99979.06;;;20.82;99.44
43071;BME280;36278;47.952;21.714;2023-07-31T06:03:53;99978.44;;;21.01;99.65
43071;BME280;36278;47.952;21.714;2023-07-31T06:06:18;99972.56;;;21.12;97.75
43071;BME280;36278;47.952;21.714;2023-07-31T06:08:44;99977.22;;;21.25;96.40
43071;BME280;36278;47.952;21.714;2023-07-31T06:11:09;99983.31;;;21.34;95.81
43071;BME280;36278;47.952;21.714;2023-07-31T06:13:34;99977.34;;;21.17;95.60
43071;BME280;36278;47.952;21.714;2023-07-31T06:16:00;99983.16;;;21.35;94.91
43071;BME280;36278;47.952;21.714;2023-07-31T06:18:27;99977.66;;;21.50;95.31
43071;BME280;36278;47.952;21.714;2023-07-31T06:20:53;99982.69;;;21.53;93.50
43071;BME280;36278;47.952;21.714;2023-07-31T06:23:19;99976.19;;;21.47;92.69
43071;BME280;36278;47.952;21.714;2023-07-31T06:25:44;99974.19;;;21.56;91.83
43071;BME280;36278;47.952;21.714;2023-07-31T06:28:09;99972.59;;;21.62;92.71
43071;BME280;36278;47.952;21.714;2023-07-31T06:30:35;99980.78;;;21.75;92.05
43071;BME280;36278;47.952;21.714;2023-07-31T06:33:00;99980.66;;;21.90;91.81
43071;BME280;36278;47.952;21.714;2023-07-31T06:35:25;99984.28;;;22.03;90.42
43071;BME280;36278;47.952;21.714;2023-07-31T06:37:51;99983.44;;;22.03;88.17
43071;BME280;36278;47.952;21.714;2023-07-31T06:40:16;99980.81;;;22.09;88.74
43071;BME280;36278;47.952;21.714;2023-07-31T06:42:41;99986.84;;;22.12;90.57
43071;BME280;36278;47.952;21.714;2023-07-31T06:45:07;99986.47;;;22.21;90.35
43071;BME280;36278;47.952;21.714;2023-07-31T06:47:32;99991.69;;;22.29;87.50
43071;BME280;36278;47.952;21.714;2023-07-31T06:49:58;99995.81;;;22.19;88.75
43071;BME280;36278;47.952;21.714;2023-07-31T06:52:23;99992.66;;;22.15;87.83
43071;BME280;36278;47.952;21.714;2023-07-31T06:55:00;99995.22;;;22.30;88.68
43071;BME280;36278;47.952;21.714;2023-07-31T06:57:25;99991.97;;;22.41;87.83
43071;BME280;36278;47.952;21.714;2023-07-31T06:59:50;99983.91;;;22.54;86.29
43071;BME280;36278;47.952;21.714;2023-07-31T07:02:16;99987.03;;;22.51;85.86
43071;BME280;36278;47.952;21.714;2023-07-31T07:04:41;99986.19;;;22.51;86.25
43071;BME280;36278;47.952;21.714;2023-07-31T07:07:06;99985.16;;;22.52;85.43
43071;BME280;36278;47.952;21.714;2023-07-31T07:09:32;99982.53;;;22.65;85.87
43071;BME280;36278;47.952;21.714;2023-07-31T07:11:57;99990.66;;;22.78;83.67
43071;BME280;36278;47.952;21.714;2023-07-31T07:14:22;99978.81;;;22.73;81.74
43071;BME280;36278;47.952;21.714;2023-07-31T07:16:50;99984.66;;;22.83;81.91
43071;BME280;36278;47.952;21.714;2023-07-31T07:19:15;99977.22;;;23.05;82.03
43071;BME280;36278;47.952;21.714;2023-07-31T07:21:41;99979.13;;;23.24;80.63
43071;BME280;36278;47.952;21.714;2023-07-31T07:24:06;99977.47;;;23.36;80.41
43071;BME280;36278;47.952;21.714;2023-07-31T07:26:31;99976.88;;;23.47;80.02
43071;BME280;36278;47.952;21.714;2023-07-31T07:28:57;99975.19;;;23.40;77.67
43071;BME280;36278;47.952;21.714;2023-07-31T07:31:22;99982.88;;;23.49;78.45
43071;BME280;36278;47.952;21.714;2023-07-31T07:33:48;99978.97;;;23.72;76.55
43071;BME280;36278;47.952;21.714;2023-07-31T07:36:13;99982.28;;;23.81;75.71
43071;BME280;36278;47.952;21.714;2023-07-31T07:38:38;99981.22;;;23.82;75.90
43071;BME280;36278;47.952;21.714;2023-07-31T07:41:04;99979.97;;;23.97;76.02
43071;BME280;36278;47.952;21.714;2023-07-31T07:43:29;99977.03;;;24.05;74.92
43071;BME280;36278;47.952;21.714;2023-07-31T07:45:55;99970.16;;;24.03;76.31
43071;BME280;36278;47.952;21.714;2023-07-31T07:48:21;99973.72;;;24.03;73.80
43071;BME280;36278;47.952;21.714;2023-07-31T07:50:46;99975.81;;;23.95;73.43
43071;BME280;36278;47.952;21.714;2023-07-31T07:53:12;99960.34;;;24.15;73.67
43071;BME280;36278;47.952;21.714;2023-07-31T07:55:37;99965.09;;;24.33;73.01
43071;BME280;36278;47.952;21.714;2023-07-31T07:58:02;99962.50;;;24.51;72.96
43071;BME280;36278;47.952;21.714;2023-07-31T08:00:28;99960.34;;;24.67;72.58
43071;BME280;36278;47.952;21.714;2023-07-31T08:02:53;99950.25;;;24.87;70.93
43071;BME280;36278;47.952;21.714;2023-07-31T08:05:18;99954.91;;;24.73;70.54
43071;BME280;36278;47.952;21.714;2023-07-31T08:07:44;99958.19;;;24.82;69.77
43071;BME280;36278;47.952;21.714;2023-07-31T08:10:09;99957.88;;;25.03;67.90
43071;BME280;36278;47.952;21.714;2023-07-31T08:12:34;99956.78;;;25.11;66.21
43071;BME280;36278;47.952;21.714;2023-07-31T08:15:00;99962.31;;;25.23;65.78
43071;BME280;36278;47.952;21.714;2023-07-31T08:17:25;99962.44;;;25.34;65.64
43071;BME280;36278;47.952;21.714;2023-07-31T08:19:50;99960.88;;;25.45;65.90
43071;BME280;36278;47.952;21.714;2023-07-31T08:22:16;99961.41;;;25.35;66.51
43071;BME280;36278;47.952;21.714;2023-07-31T08:24:41;99960.28;;;25.43;66.63
43071;BME280;36278;47.952;21.714;2023-07-31T08:27:06;99953.81;;;25.19;68.98
43071;BME280;36278;47.952;21.714;2023-07-31T08:29:32;99963.66;;;25.38;66.66
43071;BME280;36278;47.952;21.714;2023-07-31T08:31:57;99959.75;;;25.34;64.53
43071;BME280;36278;47.952;21.714;2023-07-31T08:34:22;99959.66;;;25.41;62.59
43071;BME280;36278;47.952;21.714;2023-07-31T08:36:48;99963.00;;;25.43;64.41
43071;BME280;36278;47.952;21.714;2023-07-31T08:39:13;99965.31;;;25.39;64.06
43071;BME280;36278;47.952;21.714;2023-07-31T08:41:38;99965.59;;;25.31;63.75
43071;BME280;36278;47.952;21.714;2023-07-31T08:44:04;99966.03;;;25.53;64.49
43071;BME280;36278;47.952;21.714;2023-07-31T08:46:30;99961.22;;;25.80;62.58
43071;BME280;36278;47.952;21.714;2023-07-31T08:48:55;99967.41;;;25.87;63.91
43071;BME280;36278;47.952;21.714;2023-07-31T08:51:23;99964.31;;;25.84;63.10
43071;BME280;36278;47.952;21.714;2023-07-31T08:53:48;99972.22;;;25.85;61.90
43071;BME280;36278;47.952;21.714;2023-07-31T08:56:14;99959.88;;;25.64;63.49
43071;BME280;36278;47.952;21.714;2023-07-31T08:58:41;99969.56;;;25.54;64.28
43071;BME280;36278;47.952;21.714;2023-07-31T09:01:07;99957.44;;;25.56;63.15
43071;BME280;36278;47.952;21.714;2023-07-31T09:03:33;99967.59;;;25.67;63.45
43071;BME280;36278;47.952;21.714;2023-07-31T09:05:58;99966.69;;;25.74;62.43
43071;BME280;36278;47.952;21.714;2023-07-31T09:08:24;99965.69;;;25.93;61.64
43071;BME280;36278;47.952;21.714;2023-07-31T09:10:51;99971.78;;;25.88;64.71
43071;BME280;36278;47.952;21.714;2023-07-31T09:13:17;99965.84;;;26.16;61.46
43071;BME280;36278;47.952;21.714;2023-07-31T09:15:44;99965.09;;;26.27;61.17
43071;BME280;36278;47.952;21.714;2023-07-31T09:18:10;99969.56;;;26.40;61.04
43071;BME280;36278;47.952;21.714;2023-07-31T09:20:36;99958.00;;;26.45;61.37
43071;BME280;36278;47.952;21.714;2023-07-31T09:23:12;99953.47;;;26.57;60.14
43071;BME280;36278;47.952;21.714;2023-07-31T09:25:38;99949.16;;;26.79;60.16
43071;BME280;36278;47.952;21.714;2023-07-31T09:28:05;99954.50;;;26.86;59.41
43071;BME280;36278;47.952;21.714;2023-07-31T09:30:30;99949.41;;;27.08;59.87
43071;BME280;36278;47.952;21.714;2023-07-31T09:33:14;99959.38;;;27.26;57.82
43071;BME280;36278;47.952;21.714;2023-07-31T09:35:39;99952.56;;;27.47;57.53
43071;BME280;36278;47.952;21.714;2023-07-31T09:38:12;99949.94;;;27.52;57.35
43071;BME280;36278;47.952;21.714;2023-07-31T09:40:38;99944.53;;;27.75;56.79
43071;BME280;36278;47.952;21.714;2023-07-31T09:43:05;99951.16;;;28.03;57.02
43071;BME280;36278;47.952;21.714;2023-07-31T09:45:33;99934.88;;;28.19;55.75
43071;BME280;36278;47.952;21.714;2023-07-31T09:47:58;99935.38;;;28.05;56.73
43071;BME280;36278;47.952;21.714;2023-07-31T09:50:24;99945.59;;;27.62;58.16
43071;BME280;36278;47.952;21.714;2023-07-31T09:52:50;99937.28;;;27.22;58.79
43071;BME280;36278;47.952;21.714;2023-07-31T09:55:15;99944.97;;;26.95;59.38
43071;BME280;36278;47.952;21.714;2023-07-31T09:57:43;99934.16;;;26.47;60.90
43071;BME280;36278;47.952;21.714;2023-07-31T10:00:09;99932.34;;;26.04;61.19
43071;BME280;36278;47.952;21.714;2023-07-31T10:02:35;99936.59;;;26.00;63.26
43071;BME280;36278;47.952;21.714;2023-07-31T10:05:02;99943.50;;;25.78;62.12
43071;BME280;36278;47.952;21.714;2023-07-31T10:07:28;99941.34;;;25.61;62.81
43071;BME280;36278;47.952;21.714;2023-07-31T10:09:55;99943.56;;;25.46;64.01
43071;BME280;36278;47.952;21.714;2023-07-31T10:12:23;99949.34;;;25.25;63.21
43071;BME280;36278;47.952;21.714;2023-07-31T10:14:50;99948.34;;;25.26;62.88
43071;BME280;36278;47.952;21.714;2023-07-31T10:17:17;99941.13;;;25.38;61.74
43071;BME280;36278;47.952;21.714;2023-07-31T10:19:43;99952.03;;;25.31;60.56
43071;BME280;36278;47.952;21.714;2023-07-31T10:22:09;99944.78;;;25.75;61.83
43071;BME280;36278;47.952;21.714;2023-07-31T10:24:35;99934.84;;;26.24;61.03
43071;BME280;36278;47.952;21.714;2023-07-31T10:27:02;99938.63;;;26.71;58.51
43071;BME280;36278;47.952;21.714;2023-07-31T10:29:28;99936.66;;;27.08;56.60
43071;BME280;36278;47.952;21.714;2023-07-31T10:31:55;99933.25;;;27.13;57.29
43071;BME280;36278;47.952;21.714;2023-07-31T10:34:21;99939.72;;;26.52;57.78
43071;BME280;36278;47.952;21.714;2023-07-31T10:36:46;99932.50;;;26.09;59.80
43071;BME280;36278;47.952;21.714;2023-07-31T10:41:56;99933.38;;;25.66;59.86
43071;BME280;36278;47.952;21.714;2023-07-31T10:44:21;99927.97;;;25.41;60.44
43071;BME280;36278;47.952;21.714;2023-07-31T10:46:46;99931.72;;;25.15;60.46
43071;BME280;36278;47.952;21.714;2023-07-31T10:49:12;99932.81;;;25.08;59.63
43071;BME280;36278;47.952;21.714;2023-07-31T10:51:46;99929.44;;;25.12;58.95
43071;BME280;36278;47.952;21.714;2023-07-31T10:54:16;99935.59;;;25.26;59.44
43071;BME280;36278;47.952;21.714;2023-07-31T10:56:46;99931.97;;;25.57;58.59
43071;BME280;36278;47.952;21.714;2023-07-31T10:59:15;99927.09;;;25.91;57.95
43071;BME280;36278;47.952;21.714;2023-07-31T11:01:55;99922.09;;;26.24;56.13
43071;BME280;36278;47.952;21.714;2023-07-31T11:04:24;99920.94;;;26.50;56.45
43071;BME280;36278;47.952;21.714;2023-07-31T11:07:00;99917.16;;;26.81;56.45
43071;BME280;36278;47.952;21.714;2023-07-31T11:09:29;99921.94;;;26.56;55.72
43071;BME280;36278;47.952;21.714;2023-07-31T11:11:55;99915.78;;;26.61;55.73
43071;BME280;36278;47.952;21.714;2023-07-31T11:14:20;99909.63;;;26.35;56.41
43071;BME280;36278;47.952;21.714;2023-07-31T11:16:46;99916.91;;;26.41;57.27
43071;BME280;36278;47.952;21.714;2023-07-31T11:19:14;99918.09;;;26.27;57.18
43071;BME280;36278;47.952;21.714;2023-07-31T11:21:40;99914.19;;;26.41;57.06
43071;BME280;36278;47.952;21.714;2023-07-31T11:24:05;99918.09;;;26.75;55.89
43071;BME280;36278;47.952;21.714;2023-07-31T11:26:30;99917.03;;;27.06;56.93
43071;BME280;36278;47.952;21.714;2023-07-31T11:28:56;99909.50;;;27.67;54.40
43071;BME280;36278;47.952;21.714;2023-07-31T11:31:21;99909.19;;;28.15;53.96
43071;BME280;36278;47.952;21.714;2023-07-31T11:33:47;99913.19;;;28.65;51.81
43071;BME280;36278;47.952;21.714;2023-07-31T11:36:16;99901.63;;;29.03;52.56
43071;BME280;36278;47.952;21.714;2023-07-31T11:38:42;99899.22;;;29.07;49.17
43071;BME280;36278;47.952;21.714;2023-07-31T11:41:08;99908.50;;;28.08;51.08
43071;BME280;36278;47.952;21.714;2023-07-31T11:43:33;99906.00;;;28.07;51.32
43071;BME280;36278;47.952;21.714;2023-07-31T11:46:01;99905.59;;;27.63;54.38
43071;BME280;36278;47.952;21.714;2023-07-31T11:48:29;99899.44;;;27.56;52.47
43071;BME280;36278;47.952;21.714;2023-07-31T11:50:58;99898.84;;;27.42;53.66
43071;BME280;36278;47.952;21.714;2023-07-31T11:53:35;99900.84;;;27.23;54.44
43071;BME280;36278;47.952;21.714;2023-07-31T11:56:02;99905.91;;;27.08;55.79
43071;BME280;36278;47.952;21.714;2023-07-31T11:58:30;99895.16;;;27.36;53.30
43071;BME280;36278;47.952;21.714;2023-07-31T12:00:56;99897.78;;;27.43;54.03
43071;BME280;36278;47.952;21.714;2023-07-31T12:03:23;99895.66;;;27.57;52.45
43071;BME280;36278;47.952;21.714;2023-07-31T12:05:48;99884.06;;;27.73;52.43
43071;BME280;36278;47.952;21.714;2023-07-31T12:08:14;99888.44;;;27.51;50.70
43071;BME280;36278;47.952;21.714;2023-07-31T12:10:41;99883.69;;;27.81;51.14
43071;BME280;36278;47.952;21.714;2023-07-31T12:13:10;99879.66;;;27.96;50.75
43071;BME280;36278;47.952;21.714;2023-07-31T12:18:04;99871.47;;;27.96;50.79
43071;BME280;36278;47.952;21.714;2023-07-31T12:20:29;99872.81;;;28.79;49.26
43071;BME280;36278;47.952;21.714;2023-07-31T12:22:56;99866.13;;;29.37;48.21
43071;BME280;36278;47.952;21.714;2023-07-31T12:25:22;99862.63;;;29.75;46.48
43071;BME280;36278;47.952;21.714;2023-07-31T12:27:47;99863.31;;;29.87;46.50
43071;BME280;36278;47.952;21.714;2023-07-31T12:30:28;99869.84;;;28.80;47.66
43071;BME280;36278;47.952;21.714;2023-07-31T12:32:53;99855.88;;;28.76;46.98
43071;BME280;36278;47.952;21.714;2023-07-31T12:35:19;99857.50;;;28.44;48.17
43071;BME280;36278;47.952;21.714;2023-07-31T12:37:44;99864.41;;;28.35;49.20
43071;BME280;36278;47.952;21.714;2023-07-31T12:40:10;99857.06;;;28.24;50.35
43071;BME280;36278;47.952;21.714;2023-07-31T12:42:35;99846.94;;;28.07;50.34
43071;BME280;36278;47.952;21.714;2023-07-31T12:45:01;99848.09;;;27.71;53.30
43071;BME280;36278;47.952;21.714;2023-07-31T12:47:26;99846.66;;;27.57;51.72
43071;BME280;36278;47.952;21.714;2023-07-31T12:49:52;99845.38;;;27.48;52.66
43071;BME280;36278;47.952;21.714;2023-07-31T12:52:17;99843.84;;;27.17;54.87